sensor_id;sensor_type;location;lat;lon;timestamp;pressure;altitude;pressure_sealevel;temperature;humidity
26563;BME280;14217;50.986;5.826;2023-04-25T00:01:27;100447.00;;;20.28;39.90
26563;BME280;14217;50.986;5.826;2023-04-25T00:06:29;100447.75;;;20.30;39.88
26563;BME280;14217;50.986;5.826;2023-04-25T00:11:31;100448.88;;;20.26;40.01
26563;BME280;14217;50.986;5.826;2023-04-25T00:16:33;100447.88;;;20.28;40.11
26563;BME280;14217;50.986;5.826;2023-04-25T00:21:36;100446.16;;;20.27;40.08
26563;BME280;14217;50.986;5.826;2023-04-25T00:26:42;100454.97;;;20.28;40.25
26563;BME280;14217;50.986;5.826;2023-04-25T00:31:43;100446.16;;;20.27;39.95
26563;BME280;14217;50.986;5.826;2023-04-25T00:36:45;100451.66;;;20.24;39.93
26563;BME280;14217;50.986;5.826;2023-04-25T00:41:47;100451.66;;;20.24;40.03
26563;BME280;14217;50.986;5.826;2023-04-25T00:46:50;100446.34;;;20.24;40.11
26563;BME280;14217;50.986;5.826;2023-04-25T00:51:52;100451.66;;;20.24;40.28
26563;BME280;14217;50.986;5.826;2023-04-25T00:56:54;100455.09;;;20.26;39.98
26563;BME280;14217;50.986;5.826;2023-04-25T01:01:56;100454.19;;;20.26;40.06
26563;BME280;14217;50.986;5.826;2023-04-25T01:06:58;100453.34;;;20.25;40.03
26563;BME280;14217;50.986;5.826;2023-04-25T01:12:01;100457.56;;;20.29;40.10
26563;BME280;14217;50.986;5.826;2023-04-25T01:17:04;100453.47;;;20.24;39.99
26563;BME280;14217;50.986;5.826;2023-04-25T01:22:06;100459.53;;;20.26;40.29
26563;BME280;14217;50.986;5.826;2023-04-25T01:27:09;100466.78;;;20.24;40.05
26563;BME280;14217;50.986;5.826;2023-04-25T01:32:13;100459.53;;;20.26;40.00
26563;BME280;14217;50.986;5.826;2023-04-25T01:37:16;100461.59;;;20.21;40.27
26563;BME280;14217;50.986;5.826;2023-04-25T01:42:19;100460.56;;;20.23;40.36
26563;BME280;14217;50.986;5.826;2023-04-25T01:47:20;100466.09;;;20.20;40.21
26563;BME280;14217;50.986;5.826;2023-04-25T01:52:22;100459.72;;;20.23;40.10
26563;BME280;14217;50.986;5.826;2023-04-25T01:57:24;100463.41;;;20.20;40.17
26563;BME280;14217;50.986;5.826;2023-04-25T02:02:26;100480.16;;;20.22;40.34
26563;BME280;14217;50.986;5.826;2023-04-25T02:07:28;100472.25;;;20.21;40.32
26563;BME280;14217;50.986;5.826;2023-04-25T02:12:31;100471.41;;;20.20;40.13
26563;BME280;14217;50.986;5.826;2023-04-25T02:17:33;100477.75;;;20.18;40.31
26563;BME280;14217;50.986;5.826;2023-04-25T02:22:35;100487.34;;;20.20;40.24
26563;BME280;14217;50.986;5.826;2023-04-25T02:27:37;100485.63;;;20.19;40.25
26563;BME280;14217;50.986;5.826;2023-04-25T02:32:40;100486.41;;;20.21;40.28
26563;BME280;14217;50.986;5.826;2023-04-25T02:37:42;100484.78;;;20.19;40.33
26563;BME280;14217;50.986;5.826;2023-04-25T02:42:43;100488.41;;;20.18;40.14
26563;BME280;14217;50.986;5.826;2023-04-25T02:47:47;100489.50;;;20.14;40.52
26563;BME280;14217;50.986;5.826;2023-04-25T02:52:49;100487.44;;;20.19;40.17
26563;BME280;14217;50.986;5.826;2023-04-25T02:57:51;100491.81;;;20.20;40.33
26563;BME280;14217;50.986;5.826;2023-04-25T03:02:53;100492.84;;;20.17;40.52
26563;BME280;14217;50.986;5.826;2023-04-25T03:07:55;100488.63;;;20.13;40.48
26563;BME280;14217;50.986;5.826;2023-04-25T03:12:56;100490.44;;;20.13;40.47
26563;BME280;14217;50.986;5.826;2023-04-25T03:17:58;100499.03;;;20.18;40.53
26563;BME280;14217;50.986;5.826;2023-04-25T03:23:00;100493.94;;;20.13;40.63
26563;BME280;14217;50.986;5.826;2023-04-25T03:28:02;100492.75;;;20.19;40.50
26563;BME280;14217;50.986;5.826;2023-04-25T03:33:04;100492.19;;;20.14;40.44
26563;BME280;14217;50.986;5.826;2023-04-25T03:38:06;100487.72;;;20.14;40.30
26563;BME280;14217;50.986;5.826;2023-04-25T03:43:08;100492.19;;;20.14;40.37
26563;BME280;14217;50.986;5.826;2023-04-25T03:48:09;100501.28;;;20.09;40.59
26563;BME280;14217;50.986;5.826;2023-04-25T03:53:11;100503.75;;;20.13;40.57
26563;BME280;14217;50.986;5.826;2023-04-25T03:58:13;100506.41;;;20.13;40.41
26563;BME280;14217;50.986;5.826;2023-04-25T04:03:15;100502.81;;;20.14;40.32
26563;BME280;14217;50.986;5.826;2023-04-25T04:08:17;100514.38;;;20.13;40.51
26563;BME280;14217;50.986;5.826;2023-04-25T04:13:19;100525.09;;;20.11;40.43
26563;BME280;14217;50.986;5.826;2023-04-25T04:18:21;100520.66;;;20.12;40.37
26563;BME280;14217;50.986;5.826;2023-04-25T04:23:23;100522.38;;;20.13;40.72
26563;BME280;14217;50.986;5.826;2023-04-25T04:28:25;100528.78;;;20.08;40.80
26563;BME280;14217;50.986;5.826;2023-04-25T04:33:28;100522.56;;;20.09;40.69
26563;BME280;14217;50.986;5.826;2023-04-25T04:38:30;100534.88;;;20.10;40.74
26563;BME280;14217;50.986;5.826;2023-04-25T04:43:32;100536.78;;;20.08;40.57
26563;BME280;14217;50.986;5.826;2023-04-25T04:48:34;100543.91;;;20.08;40.58
26563;BME280;14217;50.986;5.826;2023-04-25T04:53:36;100561.56;;;20.09;40.73
26563;BME280;14217;50.986;5.826;2023-04-25T04:58:38;100560.56;;;20.12;40.48
26563;BME280;14217;50.986;5.826;2023-04-25T05:03:40;100568.78;;;20.07;40.45
26563;BME280;14217;50.986;5.826;2023-04-25T05:08:42;100569.91;;;20.03;40.55
26563;BME280;14217;50.986;5.826;2023-04-25T05:13:44;100572.47;;;20.04;40.50
26563;BME280;14217;50.986;5.826;2023-04-25T05:18:47;100587.38;;;20.07;40.44
26563;BME280;14217;50.986;5.826;2023-04-25T05:23:49;100592.81;;;20.05;40.63
26563;BME280;14217;50.986;5.826;2023-04-25T05:28:51;100602.50;;;20.06;40.42
26563;BME280;14217;50.986;5.826;2023-04-25T05:33:53;100599.06;;;20.04;40.78
26563;BME280;14217;50.986;5.826;2023-04-25T05:38:55;100611.44;;;20.05;40.72
26563;BME280;14217;50.986;5.826;2023-04-25T05:43:57;100616.75;;;20.05;40.37
26563;BME280;14217;50.986;5.826;2023-04-25T05:48:59;100619.56;;;20.02;40.53
26563;BME280;14217;50.986;5.826;2023-04-25T05:54:01;100625.66;;;20.04;40.44
26563;BME280;14217;50.986;5.826;2023-04-25T05:59:03;100628.31;;;20.04;40.60
26563;BME280;14217;50.986;5.826;2023-04-25T06:04:04;100632.59;;;20.07;40.78
26563;BME280;14217;50.986;5.826;2023-04-25T06:09:07;100632.97;;;20.01;40.56
26563;BME280;14217;50.986;5.826;2023-04-25T06:14:08;100641.88;;;20.00;40.25
26563;BME280;14217;50.986;5.826;2023-04-25T06:19:10;100645.19;;;19.87;41.07
26563;BME280;14217;50.986;5.826;2023-04-25T06:24:12;100646.81;;;19.90;41.33
26563;BME280;14217;50.986;5.826;2023-04-25T06:29:14;100654.78;;;19.90;41.27
26563;BME280;14217;50.986;5.826;2023-04-25T06:34:16;100658.16;;;19.94;41.15
26563;BME280;14217;50.986;5.826;2023-04-25T06:39:17;100657.13;;;19.96;41.30
26563;BME280;14217;50.986;5.826;2023-04-25T06:44:21;100670.53;;;19.95;41.17
26563;BME280;14217;50.986;5.826;2023-04-25T06:49:25;100672.22;;;19.96;41.38
26563;BME280;14217;50.986;5.826;2023-04-25T06:54:27;100679.88;;;20.02;41.18
26563;BME280;14217;50.986;5.826;2023-04-25T06:59:30;100677.28;;;20.00;41.45
26563;BME280;14217;50.986;5.826;2023-04-25T07:04:32;100687.03;;;19.84;41.94
26563;BME280;14217;50.986;5.826;2023-04-25T07:09:34;100680.91;;;19.64;42.90
26563;BME280;14217;50.986;5.826;2023-04-25T07:14:36;100689.97;;;19.60;42.64
26563;BME280;14217;50.986;5.826;2023-04-25T07:19:39;100691.97;;;19.57;42.81
26563;BME280;14217;50.986;5.826;2023-04-25T07:24:41;100701.56;;;19.59;42.65
26563;BME280;14217;50.986;5.826;2023-04-25T07:29:43;100699.22;;;19.53;42.99
26563;BME280;14217;50.986;5.826;2023-04-25T07:34:45;100709.97;;;19.50;42.84
26563;BME280;14217;50.986;5.826;2023-04-25T07:39:47;100718.19;;;19.45;42.90
26563;BME280;14217;50.986;5.826;2023-04-25T07:44:49;100717.34;;;19.45;42.70
26563;BME280;14217;50.986;5.826;2023-04-25T07:49:53;100721.09;;;19.41;42.81
26563;BME280;14217;50.986;5.826;2023-04-25T07:54:54;100730.94;;;19.39;43.08
26563;BME280;14217;50.986;5.826;2023-04-25T07:59:56;100732.44;;;19.44;42.65
26563;BME280;14217;50.986;5.826;2023-04-25T08:04:58;100739.44;;;19.45;42.77
26563;BME280;14217;50.986;5.826;2023-04-25T08:10:00;100746.09;;;19.54;42.16
26563;BME280;14217;50.986;5.826;2023-04-25T08:15:05;100746.38;;;19.67;41.91
26563;BME280;14217;50.986;5.826;2023-04-25T08:20:07;100763.38;;;19.82;41.58
26563;BME280;14217;50.986;5.826;2023-04-25T08:25:09;100767.50;;;19.87;41.43
26563;BME280;14217;50.986;5.826;2023-04-25T08:30:11;100777.88;;;19.92;41.13
26563;BME280;14217;50.986;5.826;2023-04-25T08:35:13;100776.00;;;19.94;40.89
26563;BME280;14217;50.986;5.826;2023-04-25T08:40:15;100776.72;;;19.98;40.92
26563;BME280;14217;50.986;5.826;2023-04-25T08:45:17;100791.34;;;19.89;40.71
26563;BME280;14217;50.986;5.826;2023-04-25T08:50:21;100783.31;;;19.90;40.84
26563;BME280;14217;50.986;5.826;2023-04-25T08:55:24;100804.34;;;19.95;40.80
26563;BME280;14217;50.986;5.826;2023-04-25T09:00:27;100806.91;;;19.97;40.58
26563;BME280;14217;50.986;5.826;2023-04-25T09:05:29;100808.56;;;19.99;40.24
26563;BME280;14217;50.986;5.826;2023-04-25T09:10:32;100819.03;;;20.02;40.07
26563;BME280;14217;50.986;5.826;2023-04-25T09:15:50;100832.44;;;20.01;40.14
26563;BME280;14217;50.986;5.826;2023-04-25T09:20:58;100835.09;;;20.01;39.96
26563;BME280;14217;50.986;5.826;2023-04-25T09:26:15;100847.34;;;20.03;39.83
26563;BME280;14217;50.986;5.826;2023-04-25T09:31:22;100856.44;;;19.99;40.00
26563;BME280;14217;50.986;5.826;2023-04-25T09:36:29;100860.78;;;20.00;39.71
26563;BME280;14217;50.986;5.826;2023-04-25T09:41:31;100861.81;;;19.98;39.90
26563;BME280;14217;50.986;5.826;2023-04-25T09:46:34;100869.72;;;19.99;39.72
26563;BME280;14217;50.986;5.826;2023-04-25T09:51:38;100872.63;;;19.95;39.62
26563;BME280;14217;50.986;5.826;2023-04-25T09:56:39;100875.91;;;20.00;39.75
26563;BME280;14217;50.986;5.826;2023-04-25T10:01:43;100867.06;;;19.99;39.72
26563;BME280;14217;50.986;5.826;2023-04-25T10:06:45;100868.78;;;20.00;39.34
26563;BME280;14217;50.986;5.826;2023-04-25T10:11:51;100864.72;;;20.10;39.18
26563;BME280;14217;50.986;5.826;2023-04-25T10:16:53;100880.06;;;20.05;39.37
26563;BME280;14217;50.986;5.826;2023-04-25T10:22:08;100880.38;;;19.99;39.56
26563;BME280;14217;50.986;5.826;2023-04-25T10:27:13;100885.91;;;19.95;39.48
26563;BME280;14217;50.986;5.826;2023-04-25T10:32:15;100899.13;;;19.96;39.25
26563;BME280;14217;50.986;5.826;2023-04-25T10:37:18;100899.75;;;20.01;39.28
26563;BME280;14217;50.986;5.826;2023-04-25T10:42:20;100908.91;;;19.96;39.04
26563;BME280;14217;50.986;5.826;2023-04-25T10:47:34;100898.19;;;19.97;38.93
26563;BME280;14217;50.986;5.826;2023-04-25T10:52:40;100901.78;;;19.96;39.04
26563;BME280;14217;50.986;5.826;2023-04-25T10:57:44;100899.84;;;20.00;38.73
26563;BME280;14217;50.986;5.826;2023-04-25T11:02:51;100905.22;;;19.98;38.97
26563;BME280;14217;50.986;5.826;2023-04-25T11:07:54;100914.78;;;20.02;38.72
26563;BME280;14217;50.986;5.826;2023-04-25T11:13:08;100909.63;;;19.99;38.94
26563;BME280;14217;50.986;5.826;2023-04-25T11:18:10;100908.66;;;20.00;38.80
26563;BME280;14217;50.986;5.826;2023-04-25T11:23:12;100906.00;;;20.00;38.77
26563;BME280;14217;50.986;5.826;2023-04-25T11:28:20;100905.03;;;20.03;38.60
26563;BME280;14217;50.986;5.826;2023-04-25T11:33:24;100902.19;;;20.06;38.47
26563;BME280;14217;50.986;5.826;2023-04-25T11:38:26;100907.44;;;20.07;38.60
26563;BME280;14217;50.986;5.826;2023-04-25T11:43:29;100913.00;;;20.03;38.47
26563;BME280;14217;50.986;5.826;2023-04-25T11:48:37;100911.13;;;20.05;38.58
26563;BME280;14217;50.986;5.826;2023-04-25T11:53:44;100912.22;;;20.01;38.37
26563;BME280;14217;50.986;5.826;2023-04-25T11:58:56;100919.00;;;20.06;38.41
26563;BME280;14217;50.986;5.826;2023-04-25T12:04:13;100917.91;;;19.93;36.91
26563;BME280;14217;50.986;5.826;2023-04-25T12:09:18;100912.50;;;19.95;37.42
26563;BME280;14217;50.986;5.826;2023-04-25T12:14:27;100908.59;;;20.02;37.17
26563;BME280;14217;50.986;5.826;2023-04-25T12:19:35;100918.94;;;20.08;36.83
26563;BME280;14217;50.986;5.826;2023-04-25T12:24:37;100910.88;;;20.09;37.04
26563;BME280;14217;50.986;5.826;2023-04-25T12:29:50;100914.53;;;20.07;37.43
26563;BME280;14217;50.986;5.826;2023-04-25T12:34:52;100908.47;;;20.05;37.18
26563;BME280;14217;50.986;5.826;2023-04-25T12:39:54;100918.88;;;20.09;37.40
26563;BME280;14217;50.986;5.826;2023-04-25T12:44:56;100927.16;;;20.03;37.44
26563;BME280;14217;50.986;5.826;2023-04-25T12:49:58;100933.31;;;20.04;37.59
26563;BME280;14217;50.986;5.826;2023-04-25T12:55:00;100945.03;;;20.00;37.77
26563;BME280;14217;50.986;5.826;2023-04-25T13:00:02;100945.22;;;19.97;37.91
26563;BME280;14217;50.986;5.826;2023-04-25T13:05:06;100949.84;;;19.74;34.82
26563;BME280;14217;50.986;5.826;2023-04-25T13:10:08;100946.31;;;19.55;34.83
26563;BME280;14217;50.986;5.826;2023-04-25T13:15:10;100947.78;;;19.60;34.73
26563;BME280;14217;50.986;5.826;2023-04-25T13:20:12;100954.88;;;19.80;34.94
26563;BME280;14217;50.986;5.826;2023-04-25T13:25:16;100953.78;;;19.84;34.85
26563;BME280;14217;50.986;5.826;2023-04-25T13:30:18;100953.50;;;19.90;35.21
26563;BME280;14217;50.986;5.826;2023-04-25T13:35:20;100955.84;;;19.97;35.50
26563;BME280;14217;50.986;5.826;2023-04-25T13:40:22;100956.94;;;19.93;35.60
26563;BME280;14217;50.986;5.826;2023-04-25T13:45:26;100962.25;;;19.93;35.48
26563;BME280;14217;50.986;5.826;2023-04-25T13:50:27;100963.34;;;19.88;35.91
26563;BME280;14217;50.986;5.826;2023-04-25T13:55:29;100959.50;;;19.94;35.76
26563;BME280;14217;50.986;5.826;2023-04-25T14:00:31;100955.13;;;19.93;35.97
26563;BME280;14217;50.986;5.826;2023-04-25T14:05:36;100965.59;;;19.96;35.80
26563;BME280;14217;50.986;5.826;2023-04-25T14:10:39;100967.47;;;19.94;36.06
26563;BME280;14217;50.986;5.826;2023-04-25T14:15:41;100970.28;;;19.91;36.28
26563;BME280;14217;50.986;5.826;2023-04-25T14:20:43;100959.78;;;19.88;36.38
26563;BME280;14217;50.986;5.826;2023-04-25T14:25:45;100962.94;;;19.96;36.36
26563;BME280;14217;50.986;5.826;2023-04-25T14:30:47;100960.78;;;20.04;35.80
26563;BME280;14217;50.986;5.826;2023-04-25T14:35:49;100961.06;;;19.98;36.18
26563;BME280;14217;50.986;5.826;2023-04-25T14:40:51;100975.31;;;19.97;36.01
26563;BME280;14217;50.986;5.826;2023-04-25T14:45:53;100964.75;;;19.96;36.33
26563;BME280;14217;50.986;5.826;2023-04-25T14:50:59;100973.59;;;19.96;36.16
26563;BME280;14217;50.986;5.826;2023-04-25T14:56:01;100969.25;;;19.76;33.00
26563;BME280;14217;50.986;5.826;2023-04-25T15:01:03;100975.69;;;19.70;33.55
26563;BME280;14217;50.986;5.826;2023-04-25T15:06:05;100981.16;;;19.86;33.91
26563;BME280;14217;50.986;5.826;2023-04-25T15:11:07;100983.72;;;19.88;34.28
26563;BME280;14217;50.986;5.826;2023-04-25T15:16:09;100984.44;;;19.92;34.44
26563;BME280;14217;50.986;5.826;2023-04-25T15:21:13;100984.44;;;19.92;34.45
26563;BME280;14217;50.986;5.826;2023-04-25T15:26:15;100983.53;;;19.93;34.72
26563;BME280;14217;50.986;5.826;2023-04-25T15:31:17;100984.38;;;19.93;34.92
26563;BME280;14217;50.986;5.826;2023-04-25T15:36:19;100992.28;;;19.95;34.99
26563;BME280;14217;50.986;5.826;2023-04-25T15:41:22;100995.09;;;19.92;35.25
26563;BME280;14217;50.986;5.826;2023-04-25T15:46:24;101012.69;;;19.94;35.30
26563;BME280;14217;50.986;5.826;2023-04-25T15:51:27;101001.25;;;19.92;35.27
26563;BME280;14217;50.986;5.826;2023-04-25T15:56:29;101008.25;;;19.76;35.35
26563;BME280;14217;50.986;5.826;2023-04-25T16:01:31;101000.06;;;19.80;35.56
26563;BME280;14217;50.986;5.826;2023-04-25T16:06:33;101010.25;;;19.89;35.34
26563;BME280;14217;50.986;5.826;2023-04-25T16:11:35;101012.84;;;19.91;35.59
26563;BME280;14217;50.986;5.826;2023-04-25T16:16:37;101011.25;;;19.87;35.64
26563;BME280;14217;50.986;5.826;2023-04-25T16:21:39;101019.03;;;19.92;35.55
26563;BME280;14217;50.986;5.826;2023-04-25T16:26:42;101016.59;;;19.87;36.10
26563;BME280;14217;50.986;5.826;2023-04-25T16:31:45;101015.63;;;19.88;36.30
26563;BME280;14217;50.986;5.826;2023-04-25T16:36:48;101020.03;;;19.89;36.46
26563;BME280;14217;50.986;5.826;2023-04-25T16:41:50;101015.94;;;19.82;36.22
26563;BME280;14217;50.986;5.826;2023-04-25T16:46:52;101022.06;;;19.84;36.32
26563;BME280;14217;50.986;5.826;2023-04-25T16:51:54;101029.31;;;19.80;36.36
26563;BME280;14217;50.986;5.826;2023-04-25T16:56:56;101029.25;;;19.82;36.50
26563;BME280;14217;50.986;5.826;2023-04-25T17:01:58;101017.59;;;19.84;36.18
26563;BME280;14217;50.986;5.826;2023-04-25T17:07:00;101020.81;;;19.33;37.19
26563;BME280;14217;50.986;5.826;2023-04-25T17:12:03;101031.41;;;19.74;37.75
26563;BME280;14217;50.986;5.826;2023-04-25T17:17:05;101043.00;;;19.90;37.55
26563;BME280;14217;50.986;5.826;2023-04-25T17:22:07;101041.38;;;19.87;37.51
26563;BME280;14217;50.986;5.826;2023-04-25T17:27:09;101046.00;;;19.84;38.13
26563;BME280;14217;50.986;5.826;2023-04-25T17:32:11;101051.44;;;19.81;37.70
26563;BME280;14217;50.986;5.826;2023-04-25T17:37:17;101055.84;;;19.82;37.50
26563;BME280;14217;50.986;5.826;2023-04-25T17:42:19;101056.53;;;19.85;37.20
26563;BME280;14217;50.986;5.826;2023-04-25T17:47:22;101055.69;;;19.85;37.30
26563;BME280;14217;50.986;5.826;2023-04-25T17:52:24;101053.97;;;19.84;37.46
26563;BME280;14217;50.986;5.826;2023-04-25T17:57:26;101061.16;;;19.82;37.23
26563;BME280;14217;50.986;5.826;2023-04-25T18:02:28;101065.53;;;19.83;37.11
26563;BME280;14217;50.986;5.826;2023-04-25T18:07:30;101065.69;;;19.80;37.33
26563;BME280;14217;50.986;5.826;2023-04-25T18:12:32;101072.72;;;19.81;37.57
26563;BME280;14217;50.986;5.826;2023-04-25T18:17:35;101086.94;;;19.80;37.51
26563;BME280;14217;50.986;5.826;2023-04-25T18:22:46;101093.06;;;19.82;37.33
26563;BME280;14217;50.986;5.826;2023-04-25T18:27:48;101095.84;;;19.79;37.65
26563;BME280;14217;50.986;5.826;2023-04-25T18:32:51;101105.56;;;19.80;37.46
26563;BME280;14217;50.986;5.826;2023-04-25T18:37:53;101112.59;;;19.81;37.45
26563;BME280;14217;50.986;5.826;2023-04-25T18:42:55;101113.59;;;19.78;37.88
26563;BME280;14217;50.986;5.826;2023-04-25T18:47:57;101114.50;;;19.77;37.95
26563;BME280;14217;50.986;5.826;2023-04-25T18:53:02;101123.16;;;19.82;37.64
26563;BME280;14217;50.986;5.826;2023-04-25T18:58:04;101139.19;;;19.81;37.91
26563;BME280;14217;50.986;5.826;2023-04-25T19:03:08;101144.50;;;19.81;38.00
26563;BME280;14217;50.986;5.826;2023-04-25T19:08:10;101150.66;;;19.81;37.95
26563;BME280;14217;50.986;5.826;2023-04-25T19:13:12;101145.34;;;19.81;38.07
26563;BME280;14217;50.986;5.826;2023-04-25T19:18:14;101148.22;;;19.77;38.45
26563;BME280;14217;50.986;5.826;2023-04-25T19:23:16;101148.91;;;19.82;38.33
26563;BME280;14217;50.986;5.826;2023-04-25T19:28:18;101158.84;;;19.77;38.44
26563;BME280;14217;50.986;5.826;2023-04-25T19:33:20;101167.56;;;19.80;38.29
26563;BME280;14217;50.986;5.826;2023-04-25T19:38:22;101171.03;;;19.82;38.13
26563;BME280;14217;50.986;5.826;2023-04-25T19:43:24;101178.16;;;19.82;38.27
26563;BME280;14217;50.986;5.826;2023-04-25T19:48:25;101183.59;;;19.79;38.26
26563;BME280;14217;50.986;5.826;2023-04-25T19:53:27;101190.81;;;19.75;38.48
26563;BME280;14217;50.986;5.826;2023-04-25T19:58:30;101196.94;;;19.77;38.49
26563;BME280;14217;50.986;5.826;2023-04-25T20:03:32;101192.63;;;19.75;38.71
26563;BME280;14217;50.986;5.826;2023-04-25T20:08:34;101201.56;;;19.74;38.50
26563;BME280;14217;50.986;5.826;2023-04-25T20:13:36;101206.88;;;19.74;38.77
26563;BME280;14217;50.986;5.826;2023-04-25T20:18:38;101207.72;;;19.74;38.53
26563;BME280;14217;50.986;5.826;2023-04-25T20:23:40;101219.28;;;19.73;38.59
26563;BME280;14217;50.986;5.826;2023-04-25T20:28:44;101220.22;;;19.72;38.67
26563;BME280;14217;50.986;5.826;2023-04-25T20:33:46;101225.38;;;19.75;38.58
26563;BME280;14217;50.986;5.826;2023-04-25T20:38:48;101226.28;;;19.76;38.87
26563;BME280;14217;50.986;5.826;2023-04-25T20:43:50;101229.22;;;19.68;41.73
26563;BME280;14217;50.986;5.826;2023-04-25T20:48:53;101225.63;;;19.69;42.30
26563;BME280;14217;50.986;5.826;2023-04-25T20:53:55;101229.75;;;19.78;40.98
26563;BME280;14217;50.986;5.826;2023-04-25T20:58:57;101229.84;;;19.75;40.42
26563;BME280;14217;50.986;5.826;2023-04-25T21:03:59;101224.75;;;19.70;40.41
26563;BME280;14217;50.986;5.826;2023-04-25T21:09:02;101226.28;;;19.76;40.51
26563;BME280;14217;50.986;5.826;2023-04-25T21:14:05;101230.53;;;19.80;40.29
26563;BME280;14217;50.986;5.826;2023-04-25T21:19:07;101226.41;;;19.73;39.97
26563;BME280;14217;50.986;5.826;2023-04-25T21:24:12;101227.13;;;19.76;40.04
26563;BME280;14217;50.986;5.826;2023-04-25T21:29:14;101236.91;;;19.76;39.93
26563;BME280;14217;50.986;5.826;2023-04-25T21:34:16;101239.56;;;19.76;39.65
26563;BME280;14217;50.986;5.826;2023-04-25T21:39:18;101239.56;;;19.76;39.50
26563;BME280;14217;50.986;5.826;2023-04-25T21:44:20;101235.16;;;19.75;39.35
26563;BME280;14217;50.986;5.826;2023-04-25T21:49:22;101239.44;;;19.79;39.35
26563;BME280;14217;50.986;5.826;2023-04-25T21:54:29;101245.81;;;19.75;39.10
26563;BME280;14217;50.986;5.826;2023-04-25T21:59:32;101241.22;;;19.78;38.98
26563;BME280;14217;50.986;5.826;2023-04-25T22:04:36;101254.72;;;19.74;39.07
26563;BME280;14217;50.986;5.826;2023-04-25T22:09:38;101261.75;;;19.75;39.04
26563;BME280;14217;50.986;5.826;2023-04-25T22:14:54;101262.84;;;19.69;39.23
26563;BME280;14217;50.986;5.826;2023-04-25T22:19:57;101268.06;;;19.72;39.25
26563;BME280;14217;50.986;5.826;2023-04-25T22:25:00;101275.09;;;19.73;38.90
26563;BME280;14217;50.986;5.826;2023-04-25T22:30:02;101272.59;;;19.70;38.98
26563;BME280;14217;50.986;5.826;2023-04-25T22:35:05;101279.47;;;19.76;38.74
26563;BME280;14217;50.986;5.826;2023-04-25T22:40:07;101284.88;;;19.73;38.77
26563;BME280;14217;50.986;5.826;2023-04-25T22:45:10;101282.28;;;19.71;39.07
26563;BME280;14217;50.986;5.826;2023-04-25T22:50:12;101300.06;;;19.69;39.11
26563;BME280;14217;50.986;5.826;2023-04-25T22:55:17;101284.94;;;19.71;39.07
26563;BME280;14217;50.986;5.826;2023-04-25T23:00:19;101297.41;;;19.69;39.13
26563;BME280;14217;50.986;5.826;2023-04-25T23:05:22;101293.88;;;19.70;38.77
26563;BME280;14217;50.986;5.826;2023-04-25T23:10:26;101301.88;;;19.68;39.13
26563;BME280;14217;50.986;5.826;2023-04-25T23:15:28;101299.19;;;19.70;39.01
26563;BME280;14217;50.986;5.826;2023-04-25T23:20:33;101299.28;;;19.67;39.13
26563;BME280;14217;50.986;5.826;2023-04-25T23:25:38;101301.78;;;19.72;38.75
26563;BME280;14217;50.986;5.826;2023-04-25T23:30:40;101304.53;;;19.68;38.98
26563;BME280;14217;50.986;5.826;2023-04-25T23:35:42;101307.19;;;19.68;39.05
26563;BME280;14217;50.986;5.826;2023-04-25T23:40:44;101307.38;;;19.64;38.85
26563;BME280;14217;50.986;5.826;2023-04-25T23:45:46;101312.63;;;19.65;38.81
26563;BME280;14217;50.986;5.826;2023-04-25T23:50:48;101307.31;;;19.65;38.91
26563;BME280;14217;50.986;5.826;2023-04-25T23:55:50;101295.75;;;19.66;38.86
